Time;durP1;ratioP1;P1;durP2;ratioP2;P2;SDS_P1;SDS_P2;PMS_P1;PMS_P2;Temp;Humidity;BMP_temperature;BMP_pressure;BME280_temperature;BME280_humidity;BME280_pressure;Samples;Min_cycle;Max_cycle;Signal;HPM_P1;HPM_P2
2022/06/20 00:00:06;;;;;;;6.35;1.42;;;16.00;78.50;;;;;;5008667;28;20025;-76
2022/06/20 00:02:31;;;;;;;8.32;1.67;;;16.00;78.20;;;;;;5006100;28;20548;-77
2022/06/20 00:05:01;;;;;;;9.32;2.05;;;16.00;78.10;;;;;;5007447;28;20100;-77
2022/06/20 00:07:26;;;;;;;8.17;1.50;;;16.00;77.90;;;;;;5000581;28;20023;-77
2022/06/20 00:09:52;;;;;;;5.80;1.15;;;16.00;77.70;;;;;;4994646;28;20550;-78
2022/06/20 00:12:22;;;;;;;11.63;2.28;;;16.00;77.80;;;;;;5008161;28;20025;-77
2022/06/20 00:14:50;;;;;;;;;;;16.00;78.20;;;;;;5007321;28;20034;-76
2022/06/20 00:17:16;;;;;;;7.93;2.15;;;16.00;78.20;;;;;;5007558;28;19950;-76
2022/06/20 00:19:45;;;;;;;8.55;1.80;;;16.00;78.50;;;;;;5005287;28;20022;-77
2022/06/20 00:22:11;;;;;;;5.78;1.15;;;15.90;78.50;;;;;;5007987;28;20131;-78
2022/06/20 00:24:37;;;;;;;11.98;1.85;;;15.90;78.20;;;;;;5002656;28;20471;-77
2022/06/20 00:27:06;;;;;;;11.32;2.10;;;15.90;78.30;;;;;;5006716;28;20034;-77
2022/06/20 00:29:37;;;;;;;8.43;1.73;;;15.90;78.70;;;;;;5008192;28;20018;-77
2022/06/20 00:32:06;;;;;;;11.32;2.08;;;15.80;78.90;;;;;;5007461;28;20030;-77
2022/06/20 00:34:32;;;;;;;8.13;2.40;;;15.80;78.90;;;;;;5006012;28;20141;-77
2022/06/20 00:36:58;;;;;;;9.00;1.73;;;15.80;78.80;;;;;;4998927;28;20504;-75
2022/06/20 00:39:23;;;;;;;10.15;2.25;;;15.80;78.90;;;;;;4990637;28;20030;-76
2022/06/20 00:41:50;;;;;;;5.82;1.67;;;15.80;79.20;;;;;;5007431;28;20109;-75
2022/06/20 00:44:23;;;;;;;7.18;1.48;;;15.80;79.90;;;;;;5008187;28;20136;-77
2022/06/20 00:46:52;;;;;;;14.85;2.38;;;15.80;79.60;;;;;;5007295;28;20033;-78
2022/06/20 00:49:28;;;;;;;7.10;2.10;;;15.80;79.60;;;;;;5011236;28;20018;-76
2022/06/20 00:52:08;;;;;;;7.82;1.85;;;15.70;79.50;;;;;;5011165;28;20030;-77
2022/06/20 00:54:43;;;;;;;7.82;1.85;;;15.70;79.30;;;;;;5011470;28;20058;-77
2022/06/20 00:57:32;;;;;;;7.57;1.80;;;15.60;80.50;;;;;;4994092;28;20061;-76
2022/06/20 01:00:19;;;;;;;8.55;2.25;;;15.60;80.30;;;;;;5010154;28;20144;-76
2022/06/20 01:02:49;;;;;;;14.60;3.08;;;15.70;79.80;;;;;;5006455;28;20057;-77
2022/06/20 01:05:30;;;;;;;10.93;2.33;;;15.70;80.10;;;;;;5009987;28;20022;-78
2022/06/20 01:07:58;;;;;;;12.13;2.22;;;15.70;80.40;;;;;;5011411;28;20072;-77
2022/06/20 01:10:27;;;;;;;8.98;2.22;;;15.70;80.10;;;;;;4994381;28;20085;-78
2022/06/20 01:13:00;;;;;;;10.18;2.20;;;15.70;80.30;;;;;;5005399;28;20029;-77
2022/06/20 01:15:34;;;;;;;10.25;2.13;;;15.60;80.30;;;;;;5010978;28;20088;-78
2022/06/20 01:17:59;;;;;;;12.98;2.05;;;15.60;80.30;;;;;;5009870;28;20484;-77
2022/06/20 01:20:29;;;;;;;10.15;1.88;;;15.60;80.30;;;;;;5011960;28;20036;-78
2022/06/20 01:23:06;;;;;;;9.88;2.25;;;15.50;80.60;;;;;;5010969;28;20048;-78
2022/06/20 01:25:53;;;;;;;9.85;1.90;;;15.50;80.80;;;;;;5011608;28;20061;-78
2022/06/20 01:28:23;;;;;;;12.75;2.28;;;15.40;80.70;;;;;;5010564;28;20037;-78
2022/06/20 01:30:50;;;;;;;8.60;2.10;;;15.40;81.00;;;;;;5011701;28;20091;-78
2022/06/20 01:33:18;;;;;;;9.20;2.22;;;15.40;81.20;;;;;;5009045;28;20064;-77
2022/06/20 01:38:30;;;;;;;14.55;2.05;;;15.40;81.60;;;;;;5010413;28;20401;-78
2022/06/20 01:43:45;;;;;;;11.27;2.22;;;15.40;81.20;;;;;;4986823;28;20064;-78
2022/06/20 01:46:13;;;;;;;10.63;2.08;;;15.40;81.30;;;;;;5010185;28;20054;-78
2022/06/20 01:48:41;;;;;;;12.18;2.10;;;15.40;81.60;;;;;;4993315;28;20028;-76
2022/06/20 01:51:30;;;;;;;7.43;1.70;;;15.40;81.60;;;;;;4993704;28;20507;-77
2022/06/20 01:53:56;;;;;;;7.38;1.67;;;15.40;81.80;;;;;;4987280;28;20380;-76
2022/06/20 01:56:24;;;;;;;8.52;2.55;;;15.40;82.10;;;;;;5004810;28;20689;-77
2022/06/20 01:58:55;;;;;;;9.50;1.75;;;15.50;81.90;;;;;;5007146;28;20026;-77
2022/06/20 02:01:21;;;;;;;7.20;1.67;;;15.40;82.10;;;;;;5004845;28;20028;-77
2022/06/20 02:03:48;;;;;;;8.68;1.77;;;15.50;82.00;;;;;;5009876;28;20097;-78
2022/06/20 02:06:20;;;;;;;7.43;1.60;;;15.50;82.00;;;;;;5012452;28;20041;-77
2022/06/20 02:08:52;;;;;;;10.00;2.00;;;15.50;81.80;;;;;;4995114;28;20471;-77
2022/06/20 02:11:24;;;;;;;8.38;2.00;;;15.50;81.70;;;;;;5007147;28;20022;-78
2022/06/20 02:13:53;;;;;;;10.43;1.73;;;15.40;81.80;;;;;;5012545;28;20022;-77
2022/06/20 02:16:21;;;;;;;6.97;1.98;;;15.40;82.40;;;;;;5009869;28;20124;-77
2022/06/20 02:18:51;;;;;;;8.23;2.42;;;15.40;82.70;;;;;;5006371;28;20033;-78
2022/06/20 02:21:22;;;;;;;8.00;1.92;;;15.40;82.60;;;;;;5010171;28;20389;-78
2022/06/20 02:23:55;;;;;;;7.78;2.03;;;15.30;82.70;;;;;;5009461;28;20105;-77
2022/06/20 02:26:22;;;;;;;12.63;2.80;;;15.30;83.60;;;;;;5007124;28;20036;-77
2022/06/20 02:29:01;;;;;;;10.73;2.25;;;15.30;83.20;;;;;;5008962;28;20101;-78
2022/06/20 02:31:27;;;;;;;10.10;1.80;;;15.30;83.60;;;;;;5005867;28;20080;-78
2022/06/20 02:33:54;;;;;;;10.10;2.08;;;15.30;83.50;;;;;;5010039;28;20592;-76
2022/06/20 02:36:21;;;;;;;6.55;2.00;;;15.30;83.50;;;;;;5008897;28;20065;-77
2022/06/20 02:38:47;;;;;;;6.75;1.67;;;15.30;83.60;;;;;;5010085;28;20029;-76
2022/06/20 02:41:19;;;;;;;9.40;2.00;;;15.40;83.70;;;;;;5009421;28;20618;-77
2022/06/20 02:43:49;;;;;;;9.55;1.70;;;15.30;83.70;;;;;;5010226;28;20113;-77
2022/06/20 02:46:19;;;;;;;11.13;1.95;;;15.40;83.80;;;;;;4990953;28;20109;-77
2022/06/20 02:48:47;;;;;;;;;;;15.40;83.70;;;;;;5010427;28;20022;-77
2022/06/20 02:51:20;;;;;;;9.73;2.15;;;15.40;83.70;;;;;;5005307;28;19953;-77
2022/06/20 02:53:58;;;;;;;7.60;1.90;;;15.40;84.40;;;;;;5008888;28;20033;-78
2022/06/20 02:56:27;;;;;;;8.02;2.47;;;15.40;84.60;;;;;;5004670;28;20048;-76
2022/06/20 02:58:59;;;;;;;7.35;1.83;;;15.40;84.70;;;;;;4992213;28;20033;-78
2022/06/20 03:01:37;;;;;;;8.57;1.65;;;15.40;84.50;;;;;;5008691;28;20073;-77
2022/06/20 03:04:04;;;;;;;8.45;2.03;;;15.40;84.50;;;;;;5009760;28;20034;-77
2022/06/20 03:06:34;;;;;;;8.68;1.63;;;15.40;84.40;;;;;;5008795;28;20030;-77
2022/06/20 03:09:01;;;;;;;6.15;1.30;;;15.50;84.40;;;;;;4991766;28;20379;-79
2022/06/20 03:11:30;;;;;;;7.57;1.65;;;15.50;84.40;;;;;;5007691;28;20034;-77
2022/06/20 03:13:59;;;;;;;14.40;3.42;;;15.50;84.50;;;;;;5009757;28;20033;-78
2022/06/20 03:16:26;;;;;;;5.30;1.23;;;15.50;84.00;;;;;;5004358;28;20088;-77
2022/06/20 03:18:55;;;;;;;9.43;2.38;;;15.50;84.60;;;;;;5009424;28;20181;-77
2022/06/20 03:21:25;;;;;;;8.07;2.15;;;15.50;84.30;;;;;;5008908;28;20028;-78
2022/06/20 03:23:51;;;;;;;10.23;1.88;;;15.50;83.60;;;;;;4990782;28;20532;-78
2022/06/20 03:26:26;;;;;;;8.10;2.00;;;15.50;83.60;;;;;;5008635;28;20476;-78
2022/06/20 03:28:53;;;;;;;10.25;2.17;;;15.40;83.30;;;;;;4990894;28;20117;-77
2022/06/20 03:31:20;;;;;;;7.22;2.00;;;15.30;83.40;;;;;;4992565;28;20025;-78
2022/06/20 03:33:46;;;;;;;8.15;2.05;;;15.20;83.60;;;;;;5008635;28;20216;-78
2022/06/20 03:36:20;;;;;;;7.35;2.45;;;15.20;83.80;;;;;;5008389;28;20037;-77
2022/06/20 03:38:47;;;;;;;7.70;2.33;;;15.10;83.80;;;;;;5005991;28;20018;-76
2022/06/20 03:41:15;;;;;;;6.95;1.92;;;15.10;83.70;;;;;;5008730;28;20057;-77
2022/06/20 03:43:48;;;;;;;10.05;2.20;;;15.00;83.70;;;;;;5008776;28;20100;-78
2022/06/20 03:46:27;;;;;;;9.43;2.10;;;15.00;83.80;;;;;;5008763;28;20115;-76
2022/06/20 03:49:04;;;;;;;9.73;2.05;;;14.90;84.40;;;;;;5007719;28;20028;-77
2022/06/20 03:51:40;;;;;;;8.65;1.92;;;14.90;84.00;;;;;;5008016;28;20026;-78
2022/06/20 03:54:29;;;;;;;10.63;2.38;;;14.90;83.80;;;;;;5008644;28;20040;-77
2022/06/20 03:57:06;;;;;;;8.63;2.03;;;14.90;83.70;;;;;;5008127;28;20483;-77
2022/06/20 03:59:54;;;;;;;6.10;1.85;;;14.90;83.80;;;;;;5006100;28;20280;-78
2022/06/20 04:02:33;;;;;;;9.98;1.83;;;14.90;83.80;;;;;;5007704;28;20472;-76
2022/06/20 04:05:25;;;;;;;12.82;2.65;;;14.90;83.80;;;;;;5009245;28;20022;-76
2022/06/20 04:08:15;;;;;;;10.70;2.38;;;14.90;84.10;;;;;;5008052;28;20029;-77
2022/06/20 04:10:58;;;;;;;9.82;2.25;;;14.90;84.10;;;;;;5008948;28;20562;-76
2022/06/20 04:13:46;;;;;;;8.20;2.20;;;15.00;84.10;;;;;;5005287;28;20488;-78
2022/06/20 04:16:37;;;;;;;8.95;2.22;;;15.00;84.10;;;;;;5004626;28;20030;-77
2022/06/20 04:19:18;;;;;;;7.88;2.00;;;15.00;84.30;;;;;;5008274;28;20034;-78
2022/06/20 04:22:01;;;;;;;14.73;2.92;;;15.10;83.90;;;;;;5008082;28;20087;-76
2022/06/20 04:24:51;;;;;;;7.05;2.10;;;15.10;83.70;;;;;;5003032;28;20088;-78
2022/06/20 04:27:46;;;;;;;11.38;2.25;;;15.20;84.00;;;;;;5001350;28;20480;-78
2022/06/20 04:30:18;;;;;;;7.45;2.55;;;15.20;83.80;;;;;;5010182;28;20022;-77
2022/06/20 04:32:51;;;;;;;19.08;3.15;;;15.30;83.50;;;;;;4994423;28;20084;-78
2022/06/20 04:35:28;;;;;;;9.63;2.10;;;15.40;83.50;;;;;;5015803;28;20021;-77
2022/06/20 04:38:00;;;;;;;7.50;2.10;;;15.50;83.40;;;;;;5008094;28;20492;-77
2022/06/20 04:40:57;;;;;;;9.60;3.63;;;15.60;83.30;;;;;;4990891;28;20396;-77
2022/06/20 04:43:38;;;;;;;9.85;2.50;;;15.60;83.00;;;;;;5005958;28;20622;-77
2022/06/20 04:46:21;;;;;;;12.30;2.80;;;15.70;82.60;;;;;;5007962;28;20026;-77
2022/06/20 04:48:49;;;;;;;15.45;3.72;;;15.70;82.40;;;;;;5007720;28;20105;-78
2022/06/20 04:51:22;;;;;;;7.53;2.20;;;15.70;82.50;;;;;;5008032;28;20026;-77
2022/06/20 04:53:49;;;;;;;7.65;2.00;;;15.60;82.30;;;;;;5007305;28;20033;-76
2022/06/20 04:56:23;;;;;;;8.02;2.45;;;15.70;82.60;;;;;;5008164;28;20038;-78
2022/06/20 04:58:53;;;;;;;10.65;2.30;;;15.70;82.70;;;;;;5007708;28;20022;-77
2022/06/20 05:01:20;;;;;;;11.80;2.78;;;15.70;82.80;;;;;;4989540;28;20044;-78
2022/06/20 05:03:55;;;;;;;10.50;3.22;;;15.80;82.60;;;;;;5007113;28;20349;-78
2022/06/20 05:06:25;;;;;;;8.48;2.40;;;15.90;82.50;;;;;;5007973;28;20034;-78
2022/06/20 05:09:03;;;;;;;10.15;2.78;;;15.90;82.40;;;;;;5007395;28;20065;-77
2022/06/20 05:11:35;;;;;;;9.18;2.97;;;16.00;82.50;;;;;;5007786;28;20050;-76
2022/06/20 05:14:23;;;;;;;8.88;2.42;;;16.00;82.40;;;;;;5007293;28;20026;-77
2022/06/20 05:16:52;;;;;;;9.23;2.60;;;16.10;82.50;;;;;;4989253;28;20038;-77
2022/06/20 05:19:29;;;;;;;11.33;3.23;;;16.20;82.00;;;;;;4988572;28;20015;-78
2022/06/20 05:21:58;;;;;;;13.95;2.40;;;16.20;81.20;;;;;;5003286;28;21020;-78
2022/06/20 05:24:30;;;;;;;9.50;2.80;;;16.20;81.20;;;;;;5007140;28;20220;-78
2022/06/20 05:26:56;;;;;;;13.82;3.60;;;16.30;81.50;;;;;;4986880;28;20128;-78
2022/06/20 05:29:28;;;;;;;8.25;1.95;;;16.40;80.90;;;;;;5007750;28;20014;-78
2022/06/20 05:31:57;;;;;;;8.57;2.20;;;16.50;81.30;;;;;;5004301;28;20052;-78
2022/06/20 05:34:33;;;;;;;6.65;2.35;;;16.60;80.80;;;;;;5008910;28;20374;-78
2022/06/20 05:37:17;;;;;;;7.03;2.25;;;16.70;80.30;;;;;;5008429;28;20037;-78
2022/06/20 05:39:49;;;;;;;10.80;2.70;;;16.70;79.10;;;;;;5008653;28;20111;-78
2022/06/20 05:42:16;;;;;;;13.10;3.45;;;16.80;79.20;;;;;;5010572;28;20396;-77
2022/06/20 05:44:43;;;;;;;8.85;2.95;;;16.80;79.10;;;;;;5010621;28;20095;-78
2022/06/20 05:47:21;;;;;;;8.82;2.40;;;16.90;79.30;;;;;;4973658;28;20049;-77
2022/06/20 05:50:15;;;;;;;9.00;2.92;;;17.00;78.00;;;;;;5011506;28;20113;-77
2022/06/20 05:52:43;;;;;;;7.68;2.13;;;17.00;77.80;;;;;;5010966;28;20033;-76
2022/06/20 05:55:21;;;;;;;6.78;1.85;;;17.10;77.50;;;;;;5010862;28;20029;-77
2022/06/20 05:57:48;;;;;;;9.70;2.40;;;17.10;77.30;;;;;;4993376;28;20142;-77
2022/06/20 06:00:19;;;;;;;6.93;2.00;;;17.20;77.00;;;;;;5012385;28;20061;-77
2022/06/20 06:02:50;;;;;;;8.35;1.90;;;17.20;76.60;;;;;;5008470;28;20476;-78
2022/06/20 06:05:36;;;;;;;8.88;2.72;;;17.30;76.50;;;;;;5011418;28;20034;-77
2022/06/20 06:08:30;;;;;;;7.97;2.50;;;17.30;76.00;;;;;;4992579;28;20112;-79
2022/06/20 06:11:21;;;;;;;5.93;2.67;;;17.30;76.20;;;;;;4992892;28;20029;-78
2022/06/20 06:14:11;;;;;;;7.65;2.10;;;17.30;76.20;;;;;;5010835;28;20029;-77
2022/06/20 06:16:52;;;;;;;7.38;2.47;;;17.40;76.30;;;;;;5010514;28;20037;-76
2022/06/20 06:19:48;;;;;;;8.40;1.98;;;17.50;76.20;;;;;;5009306;28;20675;-76
2022/06/20 06:22:19;;;;;;;8.48;2.65;;;17.60;76.10;;;;;;5010718;28;20562;-78
2022/06/20 06:24:47;;;;;;;9.20;2.28;;;17.80;76.20;;;;;;4999965;28;20033;-77
2022/06/20 06:27:20;;;;;;;9.18;2.17;;;17.90;73.70;;;;;;4992959;28;20032;-77
2022/06/20 06:30:00;;;;;;;7.97;1.92;;;18.00;73.50;;;;;;5010350;28;20022;-76
2022/06/20 06:32:34;;;;;;;8.95;1.65;;;18.00;73.60;;;;;;5009850;28;20033;-78
2022/06/20 06:35:08;;;;;;;5.82;1.45;;;18.00;72.50;;;;;;5002092;28;20445;-75
2022/06/20 06:37:41;;;;;;;6.05;1.40;;;18.00;71.80;;;;;;5009053;28;20103;-74
2022/06/20 06:40:13;;;;;;;5.05;1.63;;;18.10;71.50;;;;;;5004100;28;20018;-76
2022/06/20 06:42:40;;;;;;;11.15;2.25;;;18.20;71.20;;;;;;5008598;28;20057;-75
2022/06/20 06:45:07;;;;;;;6.75;2.15;;;18.20;71.70;;;;;;5008363;28;20014;-76
2022/06/20 06:47:49;;;;;;;10.85;2.80;;;18.00;72.30;;;;;;5008453;28;20539;-76
2022/06/20 06:50:23;;;;;;;9.18;3.05;;;18.00;72.90;;;;;;5007323;28;20018;-75
2022/06/20 06:53:17;;;;;;;11.25;3.20;;;17.80;72.90;;;;;;5008256;28;20022;-76
2022/06/20 06:55:48;;;;;;;8.98;2.60;;;17.80;73.10;;;;;;5003986;28;20052;-76
2022/06/20 06:58:43;;;;;;;15.38;3.20;;;17.60;73.10;;;;;;5005120;28;20025;-77
2022/06/20 07:01:16;;;;;;;13.40;3.53;;;17.50;74.20;;;;;;5012625;28;20030;-76
2022/06/20 07:03:56;;;;;;;11.25;3.35;;;17.40;74.20;;;;;;5008110;28;20107;-77
2022/06/20 07:06:41;;;;;;;10.68;3.40;;;17.30;74.70;;;;;;4988893;28;20120;-75
2022/06/20 07:09:26;;;;;;;11.38;3.30;;;17.20;74.90;;;;;;5009833;28;20026;-78
2022/06/20 07:12:07;;;;;;;12.80;3.53;;;17.10;75.10;;;;;;5008639;28;20025;-77
2022/06/20 07:14:39;;;;;;;8.20;3.47;;;17.20;75.50;;;;;;5007890;28;20033;-76
2022/06/20 07:17:18;;;;;;;9.52;3.35;;;17.40;75.50;;;;;;5009591;28;20038;-76
2022/06/20 07:19:47;;;;;;;9.13;3.22;;;17.70;74.90;;;;;;5007001;28;20165;-76
2022/06/20 07:22:17;;;;;;;15.27;3.97;;;17.90;73.80;;;;;;5008408;28;20048;-75
2022/06/20 07:24:45;;;;;;;7.28;2.83;;;18.20;72.80;;;;;;5007446;28;20024;-75
2022/06/20 07:27:19;;;;;;;6.97;2.83;;;18.50;70.60;;;;;;5007082;28;20084;-75
2022/06/20 07:30:03;;;;;;;8.40;2.55;;;18.60;67.30;;;;;;5005568;28;20388;-75
2022/06/20 07:32:55;;;;;;;12.25;3.75;;;18.60;67.50;;;;;;5006828;28;20535;-76
2022/06/20 07:35:32;;;;;;;11.20;3.03;;;18.50;66.90;;;;;;5007067;28;20084;-76
2022/06/20 07:38:17;;;;;;;6.57;2.58;;;18.30;67.30;;;;;;5007086;28;20686;-76
2022/06/20 07:40:47;;;;;;;10.20;2.85;;;18.10;68.20;;;;;;5006335;28;20384;-76
2022/06/20 07:43:40;;;;;;;11.60;3.30;;;17.90;67.90;;;;;;5004592;28;20437;-75
2022/06/20 07:46:17;;;;;;;8.45;3.30;;;17.80;68.10;;;;;;5006284;28;20036;-75
2022/06/20 07:48:45;;;;;;;8.55;2.67;;;17.90;67.80;;;;;;5006518;28;20021;-74
2022/06/20 07:51:13;;;;;;;10.40;3.65;;;18.10;67.20;;;;;;5006807;28;20585;-75
2022/06/20 07:53:55;;;;;;;14.38;3.28;;;18.40;67.30;;;;;;5005774;28;20018;-76
2022/06/20 07:56:30;;;;;;;7.93;3.20;;;18.70;64.00;;;;;;5007638;28;20092;-77
2022/06/20 07:59:01;;;;;;;7.93;2.40;;;18.90;65.40;;;;;;5008290;28;20432;-74
2022/06/20 08:01:35;;;;;;;7.22;2.45;;;19.10;64.70;;;;;;5008182;28;20535;-78
2022/06/20 08:04:05;;;;;;;5.53;2.00;;;19.10;62.40;;;;;;5006915;28;20017;-75
2022/06/20 08:06:42;;;;;;;8.27;2.67;;;19.20;64.20;;;;;;5006190;28;20033;-74
2022/06/20 08:09:56;;;;;;;7.13;2.40;;;19.40;62.30;;;;;;5008666;28;20361;-75
2022/06/20 08:12:35;;;;;;;8.05;2.10;;;19.40;60.70;;;;;;4988124;28;20052;-76
2022/06/20 08:15:11;;;;;;;5.50;2.20;;;19.70;62.50;;;;;;5006939;28;20018;-75
2022/06/20 08:17:40;;;;;;;10.95;2.35;;;19.90;61.10;;;;;;5005976;28;20146;-75
2022/06/20 08:20:06;;;;;;;7.68;2.75;;;20.10;60.50;;;;;;5008418;28;20062;-74
2022/06/20 08:22:47;;;;;;;8.52;3.05;;;20.30;59.70;;;;;;4994489;28;20122;-74
2022/06/20 08:25:23;;;;;;;6.80;2.22;;;20.50;59.30;;;;;;5007344;28;20030;-75
2022/06/20 08:28:02;;;;;;;8.40;2.63;;;20.50;59.90;;;;;;5000678;28;20030;-76
2022/06/20 08:30:36;;;;;;;6.40;2.50;;;20.60;58.00;;;;;;5006085;28;20033;-75
2022/06/20 08:33:05;;;;;;;5.47;2.10;;;20.70;57.40;;;;;;5005969;28;20077;-76
2022/06/20 08:35:34;;;;;;;8.85;2.67;;;20.90;59.50;;;;;;5008221;28;20104;-74
2022/06/20 08:38:27;;;;;;;7.45;2.25;;;21.00;56.50;;;;;;5007147;28;20041;-76
2022/06/20 08:41:21;;;;;;;7.57;2.30;;;21.10;56.60;;;;;;4972139;28;20041;-76
2022/06/20 08:43:56;;;;;;;11.85;3.03;;;21.00;56.70;;;;;;5007615;28;20022;-77
2022/06/20 08:46:40;;;;;;;6.55;2.17;;;20.90;57.50;;;;;;5008341;28;20105;-76
2022/06/20 08:49:14;;;;;;;6.97;1.75;;;20.90;56.50;;;;;;5005457;28;20454;-77
2022/06/20 08:52:22;;;;;;;13.55;2.78;;;20.90;55.40;;;;;;5008671;28;20026;-76
2022/06/20 08:55:05;;;;;;;6.40;2.08;;;20.80;53.90;;;;;;4937429;29;20501;-76
2022/06/20 08:57:45;;;;;;;7.72;2.75;;;21.00;55.40;;;;;;4947295;28;20051;-77
2022/06/20 09:00:19;;;;;;;10.95;2.45;;;21.20;54.70;;;;;;4990085;28;20034;-76
2022/06/20 09:03:08;;;;;;;6.18;2.13;;;21.20;54.80;;;;;;5008156;28;20518;-75
2022/06/20 09:05:55;;;;;;;8.32;2.15;;;21.10;56.80;;;;;;5007872;28;20038;-75
2022/06/20 09:08:38;;;;;;;6.53;1.95;;;21.10;53.10;;;;;;5008896;28;20481;-75
2022/06/20 09:11:22;;;;;;;7.53;2.17;;;21.20;53.80;;;;;;5012208;28;20441;-76
2022/06/20 09:14:12;;;;;;;7.78;2.42;;;21.40;55.90;;;;;;5012015;28;20036;-75
2022/06/20 09:16:38;;;;;;;;;;;21.60;55.90;;;;;;5012792;28;20503;-75
2022/06/20 09:19:23;;;;;;;7.00;2.42;;;21.80;56.20;;;;;;5013956;28;19909;-74
2022/06/20 09:22:03;;;;;;;5.03;1.80;;;21.80;49.80;;;;;;5020927;28;20045;-74
2022/06/20 09:25:00;;;;;;;3.20;1.35;;;22.00;54.40;;;;;;5019936;28;20025;-74
2022/06/20 09:27:47;;;;;;;6.68;2.20;;;22.40;53.00;;;;;;4992363;28;20079;-75
2022/06/20 09:30:22;;;;;;;6.93;2.10;;;22.80;51.20;;;;;;5011921;28;20032;-76
2022/06/20 09:33:12;;;;;;;9.18;2.60;;;22.60;52.70;;;;;;5011836;28;20084;-75
2022/06/20 09:35:52;;;;;;;11.23;3.35;;;22.60;51.80;;;;;;5009303;28;20029;-74
2022/06/20 09:38:47;;;;;;;6.95;2.22;;;22.40;50.50;;;;;;5011899;28;20034;-76
2022/06/20 09:41:50;;;;;;;7.35;1.92;;;22.20;52.30;;;;;;5011686;28;20025;-74
2022/06/20 09:44:33;;;;;;;7.30;2.03;;;22.00;53.20;;;;;;4944084;28;20067;-75
2022/06/20 09:47:28;;;;;;;5.82;1.77;;;21.90;52.30;;;;;;5011294;28;20030;-75
2022/06/20 09:50:07;;;;;;;9.98;2.85;;;22.10;51.10;;;;;;5010846;28;20323;-75
2022/06/20 09:52:51;;;;;;;6.75;2.10;;;22.30;51.00;;;;;;5011205;28;20026;-75
2022/06/20 09:55:54;;;;;;;5.57;2.15;;;22.40;52.20;;;;;;5011177;28;20022;-76
2022/06/20 09:58:36;;;;;;;10.77;3.22;;;22.50;53.50;;;;;;4991452;28;20042;-74
2022/06/20 10:01:21;;;;;;;8.20;2.38;;;22.60;49.60;;;;;;4991665;28;20080;-75
2022/06/20 10:04:17;;;;;;;6.32;2.20;;;22.60;50.20;;;;;;4993982;28;20056;-76
2022/06/20 10:06:55;;;;;;;8.07;2.28;;;22.80;50.10;;;;;;5008016;28;20059;-75
2022/06/20 10:09:36;;;;;;;5.30;1.88;;;22.90;49.00;;;;;;5011436;28;20030;-76
2022/06/20 10:12:37;;;;;;;9.90;1.85;;;22.60;49.80;;;;;;4991117;28;20022;-76
2022/06/20 10:15:35;;;;;;;6.97;2.10;;;22.60;49.60;;;;;;4993260;28;20017;-77
2022/06/20 10:18:13;;;;;;;8.02;2.22;;;22.70;51.40;;;;;;5010691;28;20040;-77
2022/06/20 10:20:49;;;;;;;5.35;1.63;;;22.90;49.50;;;;;;5011111;28;20468;-76
2022/06/20 10:23:39;;;;;;;8.75;2.22;;;23.10;51.10;;;;;;5010792;28;20022;-76
2022/06/20 10:26:21;;;;;;;10.27;2.40;;;23.30;48.00;;;;;;5010470;28;20072;-75
2022/06/20 10:29:12;;;;;;;6.82;1.45;;;23.40;49.70;;;;;;5010864;28;20018;-76
2022/06/20 10:31:44;;;;;;;4.97;1.70;;;23.30;49.30;;;;;;5010798;28;20029;-77
2022/06/20 10:34:29;;;;;;;4.00;1.10;;;23.30;49.60;;;;;;5010741;28;20042;-75
2022/06/20 10:37:24;;;;;;;5.95;1.35;;;23.50;45.30;;;;;;5010223;28;20034;-74
2022/06/20 10:39:55;;;;;;;4.47;1.65;;;23.60;42.90;;;;;;5008323;28;20046;-76
2022/06/20 10:42:54;;;;;;;6.60;1.63;;;23.80;48.70;;;;;;5010038;28;20116;-75
2022/06/20 10:45:32;;;;;;;6.13;1.30;;;23.80;46.40;;;;;;5010523;28;20041;-75
2022/06/20 10:48:25;;;;;;;3.70;1.10;;;23.90;43.50;;;;;;5009291;28;20160;-75
2022/06/20 10:51:31;;;;;;;8.77;2.08;;;24.10;47.60;;;;;;5010378;28;20380;-75
2022/06/20 10:54:23;;;;;;;5.88;1.35;;;24.20;44.30;;;;;;5001816;28;20488;-74
2022/06/20 10:56:55;;;;;;;3.20;1.20;;;24.30;43.40;;;;;;5009395;28;20400;-75
2022/06/20 10:59:40;;;;;;;4.82;1.38;;;24.40;45.80;;;;;;4992145;28;20113;-76
2022/06/20 11:02:27;;;;;;;5.70;1.35;;;24.40;44.20;;;;;;4992408;28;20384;-75
2022/06/20 11:05:19;;;;;;;7.32;1.80;;;24.50;42.10;;;;;;5010088;28;20025;-76
2022/06/20 11:07:50;;;;;;;6.13;1.50;;;24.70;41.00;;;;;;5009430;28;20121;-74
2022/06/20 11:10:57;;;;;;;3.40;0.98;;;24.80;41.20;;;;;;5009875;28;20022;-74
2022/06/20 11:13:38;;;;;;;4.65;1.20;;;24.50;43.60;;;;;;4982206;28;20038;-74
2022/06/20 11:16:32;;;;;;;4.47;1.48;;;24.50;44.30;;;;;;5008726;28;20113;-77
2022/06/20 11:19:12;;;;;;;4.90;1.33;;;24.60;50.60;;;;;;4990518;28;20030;-75
2022/06/20 11:21:52;;;;;;;3.92;1.00;;;24.40;44.30;;;;;;5010215;28;20104;-75
2022/06/20 11:24:28;;;;;;;5.68;1.60;;;24.30;44.10;;;;;;5006670;28;20022;-74
2022/06/20 11:27:19;;;;;;;4.45;1.20;;;24.30;44.60;;;;;;5009908;28;20613;-75
2022/06/20 11:29:48;;;;;;;9.18;2.40;;;24.40;49.80;;;;;;4970726;28;20022;-74
2022/06/20 11:32:25;;;;;;;5.13;1.30;;;24.50;43.20;;;;;;4989410;28;20452;-76
2022/06/20 11:34:56;;;;;;;8.18;2.15;;;24.40;45.10;;;;;;5007924;28;20128;-74
2022/06/20 11:37:43;;;;;;;5.15;1.40;;;24.20;44.10;;;;;;5007693;28;20520;-75
2022/06/20 11:40:48;;;;;;;6.50;1.23;;;23.80;46.10;;;;;;4990896;28;20053;-76
2022/06/20 11:43:43;;;;;;;3.55;1.33;;;23.60;49.40;;;;;;5008228;28;20034;-75
2022/06/20 11:46:26;;;;;;;6.47;1.60;;;23.60;53.40;;;;;;5010966;28;20037;-75
2022/06/20 11:48:54;;;;;;;6.80;1.55;;;23.50;43.50;;;;;;5012343;28;20104;-75
2022/06/20 11:52:02;;;;;;;3.97;1.48;;;23.90;43.40;;;;;;5017059;28;20772;-75
2022/06/20 11:55:04;;;;;;;8.65;1.58;;;24.40;45.00;;;;;;5008861;28;20107;-77
2022/06/20 11:57:44;;;;;;;5.95;1.65;;;24.50;43.80;;;;;;4938973;28;20050;-75
2022/06/20 12:00:25;;;;;;;2.83;1.05;;;24.50;44.80;;;;;;5008387;28;20034;-74
2022/06/20 12:03:24;;;;;;;5.60;1.73;;;24.70;46.00;;;;;;5009306;28;20473;-75
2022/06/20 12:06:11;;;;;;;6.40;1.97;;;25.00;42.70;;;;;;5007540;28;20025;-76
2022/06/20 12:08:40;;;;;;;5.22;1.90;;;25.10;43.10;;;;;;5008791;28;20022;-75
2022/06/20 12:11:15;;;;;;;6.53;1.75;;;25.30;45.10;;;;;;4991615;28;20022;-76
2022/06/20 12:14:03;;;;;;;6.00;1.50;;;24.90;43.10;;;;;;5008623;28;20811;-76
2022/06/20 12:16:34;;;;;;;6.13;1.52;;;24.50;46.30;;;;;;4989384;28;20088;-75
2022/06/20 12:24:50;;;;;;;7.88;1.60;;;25.00;43.20;;;;;;5008923;28;20546;-75
2022/06/20 12:27:19;;;;;;;5.43;1.42;;;25.20;43.50;;;;;;5009074;28;20026;-76
2022/06/20 12:29:47;;;;;;;6.93;1.42;;;25.30;42.80;;;;;;5008458;28;20030;-75
2022/06/20 12:32:19;;;;;;;5.43;1.95;;;25.20;42.20;;;;;;5009330;28;20033;-74
2022/06/20 12:35:17;;;;;;;4.55;1.40;;;25.10;42.60;;;;;;5008201;28;20042;-76
2022/06/20 12:37:51;;;;;;;5.25;1.33;;;24.70;42.50;;;;;;5008090;28;20038;-75
2022/06/20 12:40:25;;;;;;;5.95;1.85;;;24.30;45.40;;;;;;5008252;28;20396;-75
2022/06/20 12:43:01;;;;;;;6.05;1.73;;;24.40;44.30;;;;;;5008411;28;21351;-75
2022/06/20 12:46:01;;;;;;;7.03;2.17;;;24.70;44.10;;;;;;5012595;28;20028;-76
2022/06/20 12:49:05;;;;;;;4.28;1.00;;;24.90;42.70;;;;;;5013063;28;20494;-74
2022/06/20 12:51:49;;;;;;;5.55;1.73;;;24.80;46.60;;;;;;5012299;28;20096;-75
2022/06/20 12:54:43;;;;;;;7.20;1.50;;;24.50;43.90;;;;;;4992705;28;20022;-74
2022/06/20 12:57:17;;;;;;;7.13;1.45;;;24.30;45.50;;;;;;5011633;28;20037;-75
2022/06/20 13:00:08;;;;;;;4.65;1.45;;;24.00;45.10;;;;;;4994133;28;20043;-75
2022/06/20 13:02:56;;;;;;;8.68;1.73;;;23.80;45.80;;;;;;4997999;28;20036;-74
2022/06/20 13:05:59;;;;;;;8.50;2.13;;;23.80;51.20;;;;;;5012317;28;20029;-75
2022/06/20 13:08:40;;;;;;;8.02;2.20;;;23.50;46.70;;;;;;4923859;28;20045;-74
2022/06/20 13:11:20;;;;;;;9.15;1.85;;;23.20;46.10;;;;;;5011627;28;20021;-75
2022/06/20 13:14:04;;;;;;;;;;;23.20;46.70;;;;;;5012451;28;20022;-74
2022/06/20 13:16:41;;;;;;;9.68;1.70;;;23.20;47.40;;;;;;5011647;28;19913;-76
2022/06/20 13:19:25;;;;;;;5.85;1.60;;;23.40;46.70;;;;;;5012129;28;20030;-76
2022/06/20 13:22:02;;;;;;;7.40;1.45;;;23.70;47.40;;;;;;5011866;28;20365;-76
2022/06/20 13:24:33;;;;;;;7.70;1.80;;;23.70;48.50;;;;;;5011912;28;20025;-75
2022/06/20 13:27:19;;;;;;;11.05;2.60;;;23.60;46.90;;;;;;5011913;28;20017;-73
2022/06/20 13:30:03;;;;;;;12.40;2.53;;;23.40;48.00;;;;;;5011232;28;20042;-74
2022/06/20 13:32:40;;;;;;;7.53;2.00;;;23.40;48.20;;;;;;5011573;28;20030;-76
2022/06/20 13:35:12;;;;;;;6.90;1.92;;;23.30;47.60;;;;;;5011608;28;20109;-75
2022/06/20 13:37:43;;;;;;;9.70;2.45;;;23.30;47.50;;;;;;5011390;28;20042;-74
2022/06/20 13:40:31;;;;;;;9.93;2.60;;;23.40;47.10;;;;;;4990010;28;20102;-75
2022/06/20 13:43:12;;;;;;;6.07;1.40;;;23.40;47.30;;;;;;5010719;28;20030;-75
2022/06/20 13:46:01;;;;;;;9.82;2.35;;;23.60;48.50;;;;;;4993704;28;20061;-76
2022/06/20 13:48:45;;;;;;;5.65;1.42;;;23.80;47.60;;;;;;5011232;28;20026;-74
2022/06/20 13:51:21;;;;;;;6.85;1.70;;;24.10;48.20;;;;;;5006695;28;20030;-76